createdAt,value
2022-10-15T00:00:29.365Z,997.17
2022-10-15T00:01:29.336Z,997.19
2022-10-15T00:02:29.385Z,997.20
2022-10-15T00:03:29.283Z,997.21
2022-10-15T00:04:29.540Z,997.20
2022-10-15T00:05:29.444Z,997.19
2022-10-15T00:06:29.291Z,997.17
2022-10-15T00:07:29.192Z,997.18
2022-10-15T00:08:29.161Z,997.15
2022-10-15T00:09:29.222Z,997.13
2022-10-15T00:10:29.170Z,997.13
2022-10-15T00:11:29.158Z,997.07
2022-10-15T00:12:29.111Z,997.05
2022-10-15T00:13:29.180Z,997.00
2022-10-15T00:14:29.078Z,997.03
2022-10-15T00:15:29.164Z,997.03
2022-10-15T00:16:29.158Z,996.99
2022-10-15T00:17:29.118Z,996.94
2022-10-15T00:18:29.086Z,996.95
2022-10-15T00:19:29.058Z,996.94
2022-10-15T00:20:29.027Z,996.95
2022-10-15T00:21:28.997Z,996.98
2022-10-15T00:22:29.171Z,996.98
2022-10-15T00:23:28.993Z,996.99
2022-10-15T00:24:28.989Z,996.97
2022-10-15T00:25:28.970Z,996.97
2022-10-15T00:26:28.931Z,996.99
2022-10-15T00:27:28.949Z,996.97
2022-10-15T00:28:31.936Z,996.97
2022-10-15T00:29:28.918Z,996.96
2022-10-15T00:30:28.900Z,996.98
2022-10-15T00:31:28.876Z,996.98
2022-10-15T00:32:29.784Z,996.96
2022-10-15T00:33:28.840Z,996.97
2022-10-15T00:34:29.753Z,996.95
2022-10-15T00:35:28.934Z,996.93
2022-10-15T00:36:28.843Z,996.92
2022-10-15T00:37:28.833Z,996.91
2022-10-15T00:38:28.778Z,996.89
2022-10-15T00:39:28.808Z,996.95
2022-10-15T00:40:28.782Z,996.93
2022-10-15T00:41:28.810Z,996.97
2022-10-15T00:42:28.864Z,997.05
2022-10-15T00:43:28.741Z,997.03
2022-10-15T00:44:28.851Z,996.99
2022-10-15T00:45:28.762Z,997.04
2022-10-15T00:46:28.739Z,997.04
2022-10-15T00:47:28.710Z,996.98
2022-10-15T00:48:28.711Z,996.99
2022-10-15T00:49:28.674Z,997.05
2022-10-15T00:50:28.623Z,996.99
2022-10-15T00:51:28.630Z,996.98
2022-10-15T00:52:28.594Z,997.02
2022-10-15T00:53:28.596Z,997.02
2022-10-15T00:54:28.572Z,997.00
2022-10-15T00:55:28.567Z,997.02
2022-10-15T00:56:28.542Z,997.00
2022-10-15T00:57:28.537Z,997.02
2022-10-15T00:58:28.525Z,997.04
2022-10-15T00:59:28.526Z,997.03
2022-10-15T01:00:28.492Z,997.04
2022-10-15T01:01:28.518Z,997.03
2022-10-15T01:02:28.471Z,997.05
2022-10-15T01:03:28.479Z,997.07
2022-10-15T01:04:28.441Z,997.03
2022-10-15T01:05:28.471Z,997.05
2022-10-15T01:06:28.420Z,997.05
2022-10-15T01:07:28.446Z,997.04
2022-10-15T01:08:28.390Z,997.10
2022-10-15T01:09:28.377Z,997.10
2022-10-15T01:10:28.366Z,997.08
2022-10-15T01:11:28.367Z,997.04
2022-10-15T01:12:28.338Z,997.08
2022-10-15T01:13:28.319Z,997.05
2022-10-15T01:14:28.329Z,997.07
2022-10-15T01:15:28.311Z,997.02
2022-10-15T01:16:28.282Z,997.04
2022-10-15T01:17:28.305Z,997.04
2022-10-15T01:18:28.275Z,997.00
2022-10-15T01:19:28.254Z,996.99
2022-10-15T01:20:28.270Z,996.96
2022-10-15T01:21:28.232Z,996.93
2022-10-15T01:22:28.209Z,996.94
2022-10-15T01:23:28.280Z,996.97
2022-10-15T01:24:28.185Z,996.95
2022-10-15T01:25:28.184Z,996.96
2022-10-15T01:26:28.188Z,996.98
2022-10-15T01:27:28.159Z,996.99
2022-10-15T01:28:28.158Z,997.00
2022-10-15T01:29:28.140Z,997.01
2022-10-15T01:30:28.118Z,997.01
2022-10-15T01:31:28.093Z,997.01
2022-10-15T01:32:28.123Z,997.00
2022-10-15T01:33:28.067Z,996.99
2022-10-15T01:34:28.064Z,996.99
2022-10-15T01:35:28.060Z,997.01
2022-10-15T01:36:28.031Z,996.99
2022-10-15T01:37:28.023Z,997.00
2022-10-15T01:38:28.015Z,997.01
2022-10-15T01:39:27.996Z,997.02
2022-10-15T01:40:27.986Z,997.03
2022-10-15T01:41:27.986Z,997.01
2022-10-15T01:42:27.955Z,997.01
2022-10-15T01:43:27.944Z,997.11
2022-10-15T01:44:27.927Z,997.06
2022-10-15T01:45:27.932Z,997.10
2022-10-15T01:46:27.908Z,997.11
2022-10-15T01:47:27.915Z,997.09
2022-10-15T01:48:27.898Z,997.13
2022-10-15T01:49:27.863Z,997.12
2022-10-15T01:50:27.857Z,997.15
2022-10-15T01:51:27.850Z,997.18
2022-10-15T01:52:27.997Z,997.13
2022-10-15T01:53:27.824Z,997.15
2022-10-15T01:54:27.803Z,997.12
2022-10-15T01:55:27.790Z,997.14
2022-10-15T01:56:27.777Z,997.15
2022-10-15T01:57:27.764Z,997.10
2022-10-15T01:58:27.760Z,997.10
2022-10-15T01:59:27.762Z,997.14
2022-10-15T02:00:27.729Z,997.08
2022-10-15T02:01:27.838Z,997.12
2022-10-15T02:02:27.747Z,997.09
2022-10-15T02:03:27.690Z,997.07
2022-10-15T02:04:27.674Z,997.04
2022-10-15T02:05:27.733Z,997.03
2022-10-15T02:06:27.671Z,997.05
2022-10-15T02:07:27.649Z,997.04
2022-10-15T02:08:27.626Z,997.00
2022-10-15T02:09:27.623Z,996.99
2022-10-15T02:10:27.598Z,997.01
2022-10-15T02:11:27.595Z,997.00
2022-10-15T02:12:27.582Z,997.03
2022-10-15T02:13:27.563Z,996.94
2022-10-15T02:14:27.549Z,996.95
2022-10-15T02:15:27.541Z,996.95
2022-10-15T02:16:27.534Z,996.93
2022-10-15T02:17:27.524Z,996.91
2022-10-15T02:18:27.522Z,996.89
2022-10-15T02:19:27.502Z,996.94
2022-10-15T02:20:27.471Z,996.92
2022-10-15T02:21:27.472Z,996.91
2022-10-15T02:22:27.452Z,996.91
2022-10-15T02:23:27.443Z,996.90
2022-10-15T02:24:27.419Z,996.86
2022-10-15T02:25:27.409Z,996.84
2022-10-15T02:26:27.406Z,996.81
2022-10-15T02:27:27.384Z,996.83
2022-10-15T02:28:27.415Z,996.79
2022-10-15T02:29:27.368Z,996.81
2022-10-15T02:30:27.342Z,996.83
2022-10-15T02:31:27.330Z,996.81
2022-10-15T02:32:27.441Z,996.84
2022-10-15T02:33:27.328Z,996.84
2022-10-15T02:34:27.305Z,996.83
2022-10-15T02:35:27.298Z,996.83
2022-10-15T02:36:27.265Z,996.83
2022-10-15T02:37:27.254Z,996.85
2022-10-15T02:38:27.253Z,996.85
2022-10-15T02:39:27.232Z,996.84
2022-10-15T02:40:27.225Z,996.85
2022-10-15T02:41:27.215Z,996.84
2022-10-15T02:42:27.350Z,996.85
2022-10-15T02:43:27.178Z,996.81
2022-10-15T02:44:27.169Z,996.83
2022-10-15T02:45:27.153Z,996.82
2022-10-15T02:46:27.139Z,996.87
2022-10-15T02:47:27.149Z,996.85
2022-10-15T02:48:27.114Z,996.86
2022-10-15T02:49:27.104Z,996.87
2022-10-15T02:50:27.091Z,996.85
2022-10-15T02:51:27.095Z,996.86
2022-10-15T02:52:27.069Z,996.83
2022-10-15T02:53:27.075Z,996.88
2022-10-15T02:54:27.043Z,996.88
2022-10-15T02:55:27.034Z,996.92
2022-10-15T02:56:27.055Z,996.96
2022-10-15T02:57:27.128Z,996.95
2022-10-15T02:58:27.010Z,996.95
2022-10-15T02:59:26.985Z,996.95
2022-10-15T03:00:26.972Z,996.96
2022-10-15T03:01:27.017Z,996.96
2022-10-15T03:02:26.938Z,997.00
2022-10-15T03:03:26.926Z,997.02
2022-10-15T03:04:26.926Z,997.00
2022-10-15T03:06:26.885Z,996.98
2022-10-15T03:07:27.008Z,997.01
2022-10-15T03:08:26.859Z,996.94
2022-10-15T03:09:26.855Z,996.92
2022-10-15T03:10:26.839Z,996.88
2022-10-15T03:11:26.842Z,996.86
2022-10-15T03:12:26.815Z,996.88
2022-10-15T03:13:26.797Z,996.90
2022-10-15T03:14:26.821Z,996.83
2022-10-15T03:15:26.786Z,996.82
2022-10-15T03:16:26.762Z,996.84
2022-10-15T03:17:26.911Z,996.84
2022-10-15T03:18:26.777Z,996.82
2022-10-15T03:19:26.731Z,996.85
2022-10-15T03:20:26.709Z,996.89
2022-10-15T03:21:26.696Z,996.88
2022-10-15T03:22:26.693Z,996.85
2022-10-15T03:23:26.711Z,996.85
2022-10-15T03:24:26.669Z,996.83
2022-10-15T03:25:26.654Z,996.83
2022-10-15T03:26:26.637Z,996.80
2022-10-15T03:27:26.784Z,996.81
2022-10-15T03:28:26.673Z,996.82
2022-10-15T03:29:26.635Z,996.83
2022-10-15T03:30:26.581Z,996.82
2022-10-15T03:31:26.577Z,996.81
2022-10-15T03:32:26.629Z,996.84
2022-10-15T03:33:26.540Z,996.84
2022-10-15T03:34:26.529Z,996.81
2022-10-15T03:35:26.533Z,996.79
2022-10-15T03:36:26.501Z,996.77
2022-10-15T03:37:26.586Z,996.77
2022-10-15T03:38:26.476Z,996.74
2022-10-15T03:39:26.464Z,996.70
2022-10-15T03:40:26.454Z,996.71
2022-10-15T03:41:26.451Z,996.75
2022-10-15T03:42:26.568Z,996.74
2022-10-15T03:43:26.428Z,996.75
2022-10-15T03:44:26.410Z,996.72
2022-10-15T03:45:26.394Z,996.70
2022-10-15T03:46:26.379Z,996.67
2022-10-15T03:47:26.377Z,996.67
2022-10-15T03:48:26.356Z,996.65
2022-10-15T03:49:26.343Z,996.65
2022-10-15T03:50:26.341Z,996.69
2022-10-15T03:51:27.958Z,996.68
2022-10-15T03:52:26.644Z,996.62
2022-10-15T03:53:26.301Z,996.62
2022-10-15T03:54:26.274Z,996.62
2022-10-15T03:55:26.262Z,996.59
2022-10-15T03:56:26.246Z,996.62
2022-10-15T03:57:26.237Z,996.58
2022-10-15T03:58:26.221Z,996.61
2022-10-15T03:59:26.219Z,996.57
2022-10-15T04:00:26.197Z,996.55
2022-10-15T04:01:26.237Z,996.54
2022-10-15T04:02:26.694Z,996.52
2022-10-15T04:03:26.158Z,996.52
2022-10-15T04:04:26.149Z,996.52
2022-10-15T04:05:26.145Z,996.51
2022-10-15T04:06:26.120Z,996.51
2022-10-15T04:07:26.112Z,996.54
2022-10-15T04:08:26.105Z,996.58
2022-10-15T04:09:26.080Z,996.58
2022-10-15T04:10:26.067Z,996.60
2022-10-15T04:11:26.099Z,996.61
2022-10-15T04:12:26.433Z,996.56
2022-10-15T04:13:26.028Z,996.62
2022-10-15T04:14:26.020Z,996.58
2022-10-15T04:15:26.016Z,996.61
2022-10-15T04:16:25.999Z,996.62
2022-10-15T04:17:26.002Z,996.60
2022-10-15T04:18:25.965Z,996.63
2022-10-15T04:19:25.953Z,996.62
2022-10-15T04:20:25.944Z,996.67
2022-10-15T04:21:25.927Z,996.62
2022-10-15T04:22:26.307Z,996.71
2022-10-15T04:23:25.925Z,996.75
2022-10-15T04:24:25.895Z,996.80
2022-10-15T04:25:25.881Z,996.83
2022-10-15T04:26:25.874Z,996.81
2022-10-15T04:27:25.849Z,996.81
2022-10-15T04:28:25.860Z,996.81
2022-10-15T04:29:25.836Z,996.80
2022-10-15T04:30:25.810Z,996.84
2022-10-15T04:31:25.805Z,996.79
2022-10-15T04:32:26.064Z,996.77
2022-10-15T04:33:25.776Z,996.78
2022-10-15T04:34:25.816Z,996.77
2022-10-15T04:35:25.759Z,996.81
2022-10-15T04:36:25.740Z,996.78
2022-10-15T04:37:26.032Z,996.83
2022-10-15T04:38:25.714Z,996.81
2022-10-15T04:39:25.716Z,996.85
2022-10-15T04:40:25.689Z,996.82
2022-10-15T04:41:25.687Z,996.81
2022-10-15T04:42:25.661Z,996.84
2022-10-15T04:43:25.653Z,996.85
2022-10-15T04:44:25.633Z,996.86
2022-10-15T04:45:25.625Z,996.88
2022-10-15T04:46:25.611Z,996.92
2022-10-15T04:47:25.958Z,996.87
2022-10-15T04:48:25.596Z,996.86
2022-10-15T04:49:25.576Z,996.86
2022-10-15T04:50:25.556Z,996.91
2022-10-15T04:51:25.546Z,996.90
2022-10-15T04:52:25.532Z,996.89
2022-10-15T04:53:25.533Z,996.89
2022-10-15T04:55:25.498Z,996.86
2022-10-15T04:56:25.488Z,996.88
2022-10-15T04:57:25.792Z,996.85
2022-10-15T04:58:25.465Z,996.80
2022-10-15T04:59:25.454Z,996.83
2022-10-15T05:00:25.427Z,996.81
2022-10-15T05:01:25.426Z,996.79
2022-10-15T05:02:25.503Z,996.78
2022-10-15T05:03:25.489Z,996.73
2022-10-15T05:04:25.382Z,996.78
2022-10-15T05:05:25.391Z,996.83
2022-10-15T05:06:25.354Z,996.80
2022-10-15T05:07:25.832Z,996.84
2022-10-15T05:08:25.345Z,996.91
2022-10-15T05:09:25.321Z,996.85
2022-10-15T05:10:25.299Z,996.84
2022-10-15T05:11:25.302Z,996.83
2022-10-15T05:12:25.276Z,996.81
2022-10-15T05:13:25.277Z,996.81
2022-10-15T05:14:25.284Z,996.79
2022-10-15T05:15:25.241Z,996.74
2022-10-15T05:16:25.178Z,996.75
2022-10-15T05:17:25.633Z,996.75
2022-10-15T05:18:25.158Z,996.73
2022-10-15T05:19:25.143Z,996.72
2022-10-15T05:20:25.123Z,996.74
2022-10-15T05:21:25.163Z,996.74
2022-10-15T05:22:25.387Z,996.71
2022-10-15T05:23:25.113Z,996.71
2022-10-15T05:24:25.073Z,996.75
2022-10-15T05:25:25.057Z,996.70
2022-10-15T05:26:25.046Z,996.69
2022-10-15T05:27:25.037Z,996.66
2022-10-15T05:28:25.063Z,996.66
2022-10-15T05:29:25.016Z,996.71
2022-10-15T05:30:24.992Z,996.64
2022-10-15T05:31:25.001Z,996.62
2022-10-15T05:32:24.973Z,996.63
2022-10-15T05:33:24.957Z,996.67
2022-10-15T05:34:24.945Z,996.61
2022-10-15T05:35:24.962Z,996.62
2022-10-15T05:36:24.918Z,996.63
2022-10-15T05:37:25.141Z,996.65
2022-10-15T05:38:24.902Z,996.60
2022-10-15T05:39:24.893Z,996.59
2022-10-15T05:40:24.871Z,996.57
2022-10-15T05:41:24.865Z,996.57
2022-10-15T05:42:24.844Z,996.58
2022-10-15T05:43:24.849Z,996.56
2022-10-15T05:44:24.824Z,996.57
2022-10-15T05:45:24.831Z,996.60
2022-10-15T05:46:24.793Z,996.63
2022-10-15T05:47:25.349Z,996.63
2022-10-15T05:48:24.770Z,996.71
2022-10-15T05:49:24.756Z,996.72
2022-10-15T05:50:24.739Z,996.71
2022-10-15T05:51:24.727Z,996.66
2022-10-15T05:52:24.995Z,996.71
2022-10-15T05:53:24.723Z,996.67
2022-10-15T05:54:24.703Z,996.69
2022-10-15T05:55:25.346Z,996.71
2022-10-15T05:56:24.709Z,996.73
2022-10-15T05:57:24.657Z,996.72
2022-10-15T05:58:24.685Z,996.78
2022-10-15T05:59:24.631Z,996.77
2022-10-15T06:00:24.621Z,996.78
2022-10-15T06:01:24.596Z,996.78
2022-10-15T06:02:25.012Z,996.77
2022-10-15T06:03:24.611Z,996.83
2022-10-15T06:04:24.561Z,996.81
2022-10-15T06:05:24.561Z,996.81
2022-10-15T06:06:24.593Z,996.82
2022-10-15T06:07:24.757Z,996.81
2022-10-15T06:08:24.509Z,996.86
2022-10-15T06:09:24.518Z,996.89
2022-10-15T06:10:24.482Z,996.85
2022-10-15T06:11:24.478Z,996.78
2022-10-15T06:12:24.457Z,996.78
2022-10-15T06:13:24.462Z,996.83
2022-10-15T06:14:24.434Z,996.81
2022-10-15T06:15:24.426Z,996.82
2022-10-15T06:16:24.459Z,996.88
2022-10-15T06:17:24.674Z,996.84
2022-10-15T06:18:24.387Z,996.81
2022-10-15T06:19:24.414Z,996.85
2022-10-15T06:20:24.359Z,996.82
2022-10-15T06:21:24.352Z,996.85
2022-10-15T06:22:24.363Z,996.89
2022-10-15T06:23:24.339Z,996.91
2022-10-15T06:24:24.300Z,996.88
2022-10-15T06:25:24.311Z,996.91
2022-10-15T06:26:24.284Z,996.90
2022-10-15T06:27:24.628Z,996.94
2022-10-15T06:28:24.417Z,996.89
2022-10-15T06:29:24.259Z,996.89
2022-10-15T06:30:24.231Z,996.89
2022-10-15T06:31:24.237Z,996.89
2022-10-15T06:32:24.209Z,996.94
2022-10-15T06:33:24.192Z,996.88
2022-10-15T06:34:24.183Z,996.88
2022-10-15T06:35:24.204Z,996.87
2022-10-15T06:36:24.161Z,996.90
2022-10-15T06:37:24.566Z,996.96
2022-10-15T06:38:24.152Z,996.97
2022-10-15T06:39:24.123Z,996.99
2022-10-15T06:40:24.101Z,997.00
2022-10-15T06:41:24.136Z,997.01
2022-10-15T06:42:24.076Z,996.99
2022-10-15T06:43:24.066Z,997.00
2022-10-15T06:44:24.096Z,997.05
2022-10-15T06:45:24.037Z,997.04
2022-10-15T06:46:24.027Z,997.04
2022-10-15T06:47:24.254Z,997.09
2022-10-15T06:48:24.008Z,997.03
2022-10-15T06:49:23.995Z,997.11
2022-10-15T06:50:23.976Z,997.07
2022-10-15T06:51:23.963Z,997.11
2022-10-15T06:52:23.967Z,997.11
2022-10-15T06:53:23.943Z,997.09
2022-10-15T06:54:23.941Z,997.08
2022-10-15T06:55:23.994Z,997.14
2022-10-15T06:56:23.896Z,997.14
2022-10-15T06:57:24.221Z,997.11
2022-10-15T06:58:23.910Z,997.11
2022-10-15T06:59:23.868Z,997.07
2022-10-15T07:00:23.938Z,997.07
2022-10-15T07:01:23.875Z,997.05
2022-10-15T07:02:24.077Z,997.06
2022-10-15T07:03:23.806Z,997.00
2022-10-15T07:04:23.796Z,997.01
2022-10-15T07:05:23.820Z,997.04
2022-10-15T07:06:23.773Z,997.06
2022-10-15T07:07:23.754Z,997.09
2022-10-15T07:08:23.742Z,997.11
2022-10-15T07:09:23.744Z,997.22
2022-10-15T07:10:23.767Z,997.09
2022-10-15T07:11:23.729Z,997.12
2022-10-15T07:12:24.057Z,997.08
2022-10-15T07:13:23.677Z,997.07
2022-10-15T07:14:23.676Z,997.06
2022-10-15T07:15:23.663Z,997.07
2022-10-15T07:16:23.645Z,997.11
2022-10-15T07:17:23.640Z,997.10
2022-10-15T07:18:23.640Z,997.09
2022-10-15T07:19:23.598Z,997.08
2022-10-15T07:20:24.566Z,997.04
2022-10-15T07:21:23.591Z,997.07
2022-10-15T07:22:23.722Z,997.07
2022-10-15T07:23:26.999Z,997.05
2022-10-15T07:24:23.542Z,997.04
2022-10-15T07:25:23.545Z,996.99
2022-10-15T07:26:23.529Z,996.95
2022-10-15T07:27:23.514Z,996.98
2022-10-15T07:28:23.562Z,996.90
2022-10-15T07:29:23.484Z,996.99
2022-10-15T07:30:23.473Z,996.91
2022-10-15T07:31:23.475Z,997.03
2022-10-15T07:32:23.667Z,996.99
2022-10-15T07:33:23.430Z,997.07
2022-10-15T07:34:23.420Z,997.09
2022-10-15T07:35:23.445Z,997.03
2022-10-15T07:36:23.418Z,997.06
2022-10-15T07:37:23.400Z,997.09
2022-10-15T07:38:23.362Z,997.06
2022-10-15T07:39:23.368Z,997.11
2022-10-15T07:40:24.292Z,997.09
2022-10-15T07:41:23.351Z,997.12
2022-10-15T07:42:23.326Z,997.12
2022-10-15T07:43:23.314Z,997.17
2022-10-15T07:44:24.221Z,997.12
2022-10-15T07:45:23.274Z,997.13
2022-10-15T07:46:23.314Z,997.10
2022-10-15T07:47:24.484Z,997.11
2022-10-15T07:48:23.242Z,997.10
2022-10-15T07:49:23.249Z,997.17
2022-10-15T07:50:23.208Z,997.05
2022-10-15T07:51:23.206Z,997.01
2022-10-15T07:52:23.439Z,997.03
2022-10-15T07:53:23.177Z,997.10
2022-10-15T07:54:23.157Z,997.12
2022-10-15T07:55:23.142Z,997.07
2022-10-15T07:56:23.123Z,997.11
2022-10-15T07:57:23.126Z,997.08
2022-10-15T07:58:23.133Z,997.11
2022-10-15T07:59:23.093Z,997.13
2022-10-15T08:00:23.159Z,997.09
2022-10-15T08:01:23.070Z,997.12
2022-10-15T08:02:23.337Z,997.14
2022-10-15T08:03:23.066Z,997.08
2022-10-15T08:04:23.069Z,997.12
2022-10-15T08:05:23.092Z,997.03
2022-10-15T08:06:23.001Z,997.01
2022-10-15T08:07:23.007Z,996.94
2022-10-15T08:08:22.985Z,996.97
2022-10-15T08:09:22.960Z,997.02
2022-10-15T08:10:23.040Z,997.03
2022-10-15T08:11:22.944Z,996.86
2022-10-15T08:12:23.107Z,996.90
2022-10-15T08:13:22.936Z,996.87
2022-10-15T08:14:22.900Z,996.93
2022-10-15T08:15:22.900Z,996.98
2022-10-15T08:16:22.875Z,996.88
2022-10-15T08:17:22.907Z,996.86
2022-10-15T08:18:22.851Z,996.83
2022-10-15T08:19:22.829Z,996.84
2022-10-15T08:20:22.833Z,996.83
2022-10-15T08:21:22.814Z,996.83
2022-10-15T08:22:23.135Z,996.84
2022-10-15T08:23:22.797Z,996.74
2022-10-15T08:24:22.796Z,996.74
2022-10-15T08:25:22.769Z,996.77
2022-10-15T08:26:22.775Z,996.73
2022-10-15T08:27:22.727Z,996.72
2022-10-15T08:28:22.773Z,996.76
2022-10-15T08:29:22.718Z,996.78
2022-10-15T08:30:22.720Z,996.69
2022-10-15T08:31:23.686Z,996.72
2022-10-15T08:32:22.935Z,996.71
2022-10-15T08:33:22.658Z,996.69
2022-10-15T08:34:22.819Z,996.74
2022-10-15T08:35:22.677Z,996.68
2022-10-15T08:36:22.643Z,996.67
2022-10-15T08:37:22.601Z,996.68
2022-10-15T08:38:22.600Z,996.66
2022-10-15T08:39:22.584Z,996.74
2022-10-15T08:40:22.559Z,996.78
2022-10-15T08:41:22.585Z,996.86
2022-10-15T08:42:22.893Z,996.87
2022-10-15T08:43:22.523Z,996.91
2022-10-15T08:44:22.521Z,996.85
2022-10-15T08:45:22.514Z,996.87
2022-10-15T08:46:22.535Z,996.85
2022-10-15T08:47:22.744Z,996.81
2022-10-15T08:48:22.458Z,996.84
2022-10-15T08:49:22.451Z,996.76
2022-10-15T08:50:22.487Z,996.76
2022-10-15T08:51:22.416Z,996.72
2022-10-15T08:52:22.480Z,996.69
2022-10-15T08:53:22.477Z,996.58
2022-10-15T08:54:22.412Z,996.67
2022-10-15T08:55:22.374Z,996.71
2022-10-15T08:56:22.365Z,996.66
2022-10-15T08:57:22.684Z,996.70
2022-10-15T08:58:22.329Z,996.66
2022-10-15T08:59:22.360Z,996.79
2022-10-15T09:00:22.301Z,996.79
2022-10-15T09:01:22.333Z,996.71
2022-10-15T09:02:22.282Z,996.61
2022-10-15T09:03:22.354Z,996.68
2022-10-15T09:04:22.271Z,996.68
2022-10-15T09:05:22.253Z,996.74
2022-10-15T09:06:22.235Z,996.64
2022-10-15T09:07:22.574Z,996.58
2022-10-15T09:08:22.231Z,996.57
2022-10-15T09:09:22.189Z,996.65
2022-10-15T09:10:22.259Z,996.58
2022-10-15T09:11:22.223Z,996.56
2022-10-15T09:12:22.181Z,996.46
2022-10-15T09:13:22.142Z,996.56
2022-10-15T09:14:22.123Z,996.57
2022-10-15T09:15:25.391Z,996.57
2022-10-15T09:16:22.103Z,996.63
2022-10-15T09:17:22.576Z,996.77
2022-10-15T09:18:22.084Z,996.63
2022-10-15T09:19:22.060Z,996.64
2022-10-15T09:20:22.045Z,996.69
2022-10-15T09:21:22.045Z,996.56
2022-10-15T09:22:22.020Z,996.48
2022-10-15T09:23:22.022Z,996.55
2022-10-15T09:24:22.003Z,996.56
2022-10-15T09:25:21.977Z,996.55
2022-10-15T09:26:21.997Z,996.55
2022-10-15T09:27:22.537Z,996.55
2022-10-15T09:28:22.012Z,996.54
2022-10-15T09:29:21.990Z,996.41
2022-10-15T09:30:21.925Z,996.47
2022-10-15T09:31:21.956Z,996.44
2022-10-15T09:32:22.316Z,996.41
2022-10-15T09:33:21.906Z,996.40
2022-10-15T09:34:21.905Z,996.30
2022-10-15T09:35:23.715Z,996.30
2022-10-15T09:36:21.864Z,996.26
2022-10-15T09:37:21.857Z,996.34
2022-10-15T09:38:21.840Z,996.26
2022-10-15T09:39:22.550Z,996.19
2022-10-15T09:40:23.344Z,996.37
2022-10-15T09:41:22.448Z,996.14
2022-10-15T09:42:22.065Z,996.04
2022-10-15T09:43:24.969Z,996.07
2022-10-15T09:44:23.392Z,996.16
2022-10-15T09:45:21.985Z,996.06
2022-10-15T09:46:23.705Z,996.03
2022-10-15T09:47:21.772Z,996.02
2022-10-15T09:48:22.929Z,996.06
2022-10-15T09:49:21.702Z,996.06
2022-10-15T09:50:22.202Z,996.07
2022-10-15T09:51:23.253Z,996.05
2022-10-15T09:52:21.981Z,996.13
2022-10-15T09:53:24.538Z,996.09
2022-10-15T09:54:21.671Z,996.09
2022-10-15T09:55:21.649Z,996.05
2022-10-15T09:56:21.597Z,996.10
2022-10-15T09:57:21.606Z,996.11
2022-10-15T09:58:21.591Z,996.09
2022-10-15T09:59:21.794Z,996.14
2022-10-15T10:00:22.323Z,996.01
2022-10-15T10:01:21.839Z,996.10
2022-10-15T10:02:21.827Z,996.08
2022-10-15T10:03:22.970Z,996.05
2022-10-15T10:04:21.548Z,996.24
2022-10-15T10:05:21.525Z,996.15
2022-10-15T10:06:21.498Z,996.24
2022-10-15T10:07:21.927Z,996.14
2022-10-15T10:08:21.469Z,996.07
2022-10-15T10:09:21.609Z,996.07
2022-10-15T10:10:21.422Z,996.09
2022-10-15T10:11:21.460Z,996.14
2022-10-15T10:12:22.524Z,995.98
2022-10-15T10:13:21.382Z,996.09
2022-10-15T10:14:21.371Z,996.14
2022-10-15T10:15:21.396Z,996.06
2022-10-15T10:16:21.349Z,996.12
2022-10-15T10:17:21.718Z,996.04
2022-10-15T10:18:21.606Z,996.12
2022-10-15T10:19:22.255Z,996.05
2022-10-15T10:20:21.582Z,996.06
2022-10-15T10:21:21.288Z,995.97
2022-10-15T10:22:21.741Z,996.07
2022-10-15T10:23:21.302Z,995.96
2022-10-15T10:24:21.277Z,995.99
2022-10-15T10:25:21.314Z,996.02
2022-10-15T10:26:21.242Z,995.84
2022-10-15T10:27:21.361Z,995.97
2022-10-15T10:28:21.321Z,995.97
2022-10-15T10:29:36.590Z,995.84
2022-10-15T10:30:21.190Z,995.80
2022-10-15T10:31:21.170Z,995.76
2022-10-15T10:32:21.176Z,995.83
2022-10-15T10:33:21.143Z,995.84
2022-10-15T10:34:21.152Z,995.75
2022-10-15T10:35:21.686Z,995.82
2022-10-15T10:36:21.122Z,995.77
2022-10-15T10:37:21.619Z,995.77
2022-10-15T10:38:21.080Z,995.60
2022-10-15T10:39:21.082Z,995.88
2022-10-15T10:40:21.090Z,995.91
2022-10-15T10:41:21.096Z,995.93
2022-10-15T10:42:21.027Z,995.85
2022-10-15T10:43:21.028Z,995.82
2022-10-15T10:44:21.703Z,995.82
2022-10-15T10:45:21.806Z,995.78
2022-10-15T10:46:21.503Z,995.74
2022-10-15T10:47:21.555Z,995.67
2022-10-15T10:48:20.965Z,995.68
2022-10-15T10:49:21.917Z,995.71
2022-10-15T10:50:21.645Z,995.68
2022-10-15T10:51:20.937Z,995.66
2022-10-15T10:52:20.987Z,995.48
2022-10-15T10:53:21.635Z,995.61
2022-10-15T10:54:20.867Z,995.83
2022-10-15T10:55:22.852Z,995.69
2022-10-15T10:56:20.836Z,995.63
2022-10-15T10:57:20.946Z,995.63
2022-10-15T10:58:23.459Z,995.56
2022-10-15T10:59:21.544Z,995.55
2022-10-15T11:00:20.814Z,995.51
2022-10-15T11:01:20.864Z,995.59
2022-10-15T11:02:20.755Z,995.55
2022-10-15T11:03:20.998Z,995.85
2022-10-15T11:04:20.765Z,995.82
2022-10-15T11:05:20.736Z,995.67
2022-10-15T11:06:20.719Z,995.78
2022-10-15T11:07:20.923Z,995.57
2022-10-15T11:08:20.713Z,995.75
2022-10-15T11:09:20.691Z,995.73
2022-10-15T11:10:20.690Z,995.70
2022-10-15T11:11:20.669Z,995.65
2022-10-15T11:12:20.882Z,995.88
2022-10-15T11:13:20.684Z,995.75
2022-10-15T11:14:20.615Z,995.72
2022-10-15T11:15:20.810Z,995.75
2022-10-15T11:16:20.588Z,995.72
2022-10-15T11:17:20.553Z,995.70
2022-10-15T11:18:20.559Z,995.70
2022-10-15T11:19:50.502Z,995.67
2022-10-15T11:20:32.116Z,995.77
2022-10-15T11:21:20.551Z,995.71
2022-10-15T11:23:22.584Z,995.67
2022-10-15T11:24:20.487Z,995.71
2022-10-15T11:25:20.467Z,995.62
2022-10-15T11:26:20.506Z,995.69
2022-10-15T11:27:21.184Z,995.63
2022-10-15T11:28:20.573Z,995.93
2022-10-15T11:29:20.471Z,995.60
2022-10-15T11:30:20.461Z,995.61
2022-10-15T11:31:20.503Z,995.65
2022-10-15T11:32:22.205Z,995.60
2022-10-15T11:33:20.359Z,995.63
2022-10-15T11:34:20.365Z,995.61
2022-10-15T11:35:40.919Z,995.52
2022-10-15T11:36:20.382Z,995.47
2022-10-15T11:37:21.409Z,995.46
2022-10-15T11:38:20.307Z,995.35
2022-10-15T11:39:20.286Z,995.43
2022-10-15T11:40:21.249Z,995.39
2022-10-15T11:41:20.280Z,995.45
2022-10-15T11:42:20.491Z,995.53
2022-10-15T11:43:20.490Z,995.51
2022-10-15T11:44:20.496Z,995.44
2022-10-15T11:45:20.184Z,995.41
2022-10-15T11:46:20.250Z,995.44
2022-10-15T11:47:20.199Z,995.47
2022-10-15T11:48:21.649Z,995.36
2022-10-15T11:49:20.212Z,995.31
2022-10-15T11:50:20.385Z,995.30
2022-10-15T11:51:20.381Z,995.34
2022-10-15T11:52:20.159Z,995.35
2022-10-15T11:53:20.668Z,995.28
2022-10-15T11:54:20.067Z,995.38
2022-10-15T11:55:20.060Z,995.21
2022-10-15T11:56:20.059Z,995.33
2022-10-15T11:57:20.800Z,995.32
2022-10-15T11:58:20.095Z,995.38
2022-10-15T11:59:20.005Z,995.31
2022-10-15T12:00:19.991Z,995.35
2022-10-15T12:01:19.998Z,995.29
2022-10-15T12:02:19.970Z,995.31
2022-10-15T12:03:20.000Z,995.24
2022-10-15T12:04:20.060Z,995.15
2022-10-15T12:05:19.932Z,995.28
2022-10-15T12:06:19.923Z,995.25
2022-10-15T12:07:20.646Z,995.28
2022-10-15T12:08:19.904Z,995.30
2022-10-15T12:09:19.884Z,995.13
2022-10-15T12:10:19.871Z,995.18
2022-10-15T12:11:19.878Z,995.46
2022-10-15T12:12:19.863Z,995.17
2022-10-15T12:13:19.826Z,995.09
2022-10-15T12:14:19.818Z,995.06
2022-10-15T12:15:19.807Z,995.08
2022-10-15T12:16:19.806Z,995.23
2022-10-15T12:17:19.795Z,995.19
2022-10-15T12:18:19.760Z,995.22
2022-10-15T12:19:19.747Z,995.12
2022-10-15T12:20:19.730Z,995.18
2022-10-15T12:21:19.740Z,995.18
2022-10-15T12:22:19.723Z,995.08
2022-10-15T12:23:19.690Z,995.22
2022-10-15T12:24:19.680Z,995.12
2022-10-15T12:25:19.663Z,995.18
2022-10-15T12:26:19.651Z,995.22
2022-10-15T12:27:19.654Z,995.09
2022-10-15T12:28:19.694Z,995.18
2022-10-15T12:29:19.613Z,995.14
2022-10-15T12:30:19.605Z,995.04
2022-10-15T12:31:19.596Z,995.00